Time;durP1;ratioP1;P1;durP2;ratioP2;P2;SDS_P1;SDS_P2;PMS_P1;PMS_P2;Temp;Humidity;BMP_temperature;BMP_pressure;BME280_temperature;BME280_humidity;BME280_pressure;Samples;Min_cycle;Max_cycle;Signal;HPM_P1;HPM_P2
2021/05/19 00:00:18;;;;;;;;;;;10.40;99.90;;;;;;5077193;28;19908;-78
2021/05/19 00:02:44;;;;;;;;;;;10.40;99.90;;;;;;5077212;28;19937;-78
2021/05/19 00:05:09;;;;;;;;;;;10.40;99.90;;;;;;5077250;28;19950;-78
2021/05/19 00:07:35;;;;;;;;;;;10.30;99.90;;;;;;5077556;28;19908;-78
2021/05/19 00:10:00;;;;;;;;;;;10.40;99.90;;;;;;5077008;28;19957;-78
2021/05/19 00:12:26;;;;;;;;;;;10.40;99.90;;;;;;5077085;28;19911;-78
2021/05/19 00:14:51;;;;;;;;;;;10.40;99.90;;;;;;5077171;28;19904;-78
2021/05/19 00:17:17;;;;;;;;;;;10.40;99.90;;;;;;5077266;28;19904;-78
2021/05/19 00:19:42;;;;;;;;;;;10.40;99.90;;;;;;5076505;28;19951;-78
2021/05/19 00:22:08;;;;;;;;;;;10.40;99.90;;;;;;5076885;28;19912;-78
2021/05/19 00:24:33;;;;;;;;;;;10.40;99.90;;;;;;5076932;28;19962;-78
2021/05/19 00:26:59;;;;;;;;;;;10.40;99.90;;;;;;5076063;28;19912;-78
2021/05/19 00:29:24;;;;;;;;;;;10.40;99.90;;;;;;5076823;28;19950;-79
2021/05/19 00:31:50;;;;;;;;;;;10.40;99.90;;;;;;5076634;28;19931;-78
2021/05/19 00:34:15;;;;;;;;;;;10.40;99.90;;;;;;5076466;28;19950;-78
2021/05/19 00:36:41;;;;;;;;;;;10.50;99.90;;;;;;5076751;28;19908;-78
2021/05/19 00:39:08;;;;;;;;;;;10.50;99.90;;;;;;5076633;28;19942;-78
2021/05/19 00:41:34;;;;;;;;;;;10.50;99.90;;;;;;5076320;28;19911;-78
2021/05/19 00:44:06;;;;;;;;;;;10.30;99.90;;;;;;5094548;28;19908;-78
2021/05/19 00:46:33;;;;;;;;;;;10.30;99.90;;;;;;5076206;28;19911;-78
2021/05/19 00:48:58;;;;;;;;;;;10.30;99.90;;;;;;5094063;28;19908;-78
2021/05/19 00:51:24;;;;;;;;;;;10.30;99.90;;;;;;5076224;28;19904;-78
2021/05/19 00:53:49;;;;;;;;;;;10.30;99.90;;;;;;5076177;28;19904;-78
2021/05/19 00:56:15;;;;;;;;;;;10.30;99.90;;;;;;5094144;28;19911;-79
2021/05/19 00:58:41;;;;;;;;;;;10.30;99.90;;;;;;5075850;28;19911;-78
2021/05/19 01:01:07;;;;;;;;;;;10.30;99.90;;;;;;5076022;28;19992;-78
2021/05/19 01:03:32;;;;;;;;;;;10.40;99.90;;;;;;5076115;28;20261;-78
2021/05/19 01:06:01;;;;;;;;;;;10.40;99.90;;;;;;5076289;28;19997;-78
2021/05/19 01:11:12;;;;;;;;;;;10.40;99.90;;;;;;5094634;28;20300;-78
2021/05/19 01:13:42;;;;;;;;;;;10.30;99.90;;;;;;5075861;28;20415;-79
2021/05/19 01:16:07;;;;;;;;;;;10.20;99.90;;;;;;5094453;28;19908;-78
2021/05/19 01:18:33;;;;;;;;;;;10.30;99.90;;;;;;5075824;28;19949;-78
2021/05/19 01:20:58;;;;;;;;;;;10.30;99.90;;;;;;5093858;28;19929;-78
2021/05/19 01:23:27;;;;;;;;;;;10.20;99.90;;;;;;5075772;28;19914;-78
2021/05/19 01:25:53;;;;;;;;;;;10.10;99.90;;;;;;5075678;28;20362;-78
2021/05/19 01:28:19;;;;;;;;;;;10.10;99.90;;;;;;5075673;28;19923;-78
2021/05/19 01:30:45;;;;;;;;;;;10.00;99.90;;;;;;5075164;28;19908;-78
2021/05/19 01:33:11;;;;;;;;;;;9.80;99.90;;;;;;5093453;28;19995;-78
2021/05/19 01:35:36;;;;;;;;;;;9.90;99.90;;;;;;5075338;28;20009;-78
2021/05/19 01:38:02;;;;;;;;;;;9.90;99.90;;;;;;5075221;28;19926;-78
2021/05/19 01:40:28;;;;;;;;;;;9.90;99.90;;;;;;5074972;28;19943;-78
2021/05/19 01:42:53;;;;;;;;;;;9.90;99.90;;;;;;5075086;28;19943;-78
2021/05/19 01:45:22;;;;;;;;;;;9.80;99.90;;;;;;5075244;28;19912;-78
2021/05/19 01:47:49;;;;;;;;;;;9.90;99.90;;;;;;5075210;28;19904;-78
2021/05/19 01:50:17;;;;;;;;;;;10.00;99.90;;;;;;5074853;28;19908;-79
2021/05/19 01:52:42;;;;;;;;;;;10.10;99.90;;;;;;5075134;28;19904;-78
2021/05/19 01:55:08;;;;;;;;;;;10.10;99.90;;;;;;5093064;28;20333;-78
2021/05/19 01:57:34;;;;;;;;;;;10.00;99.90;;;;;;5093028;28;20423;-78
2021/05/19 02:00:00;;;;;;;;;;;10.00;99.90;;;;;;5074727;28;19904;-78
2021/05/19 02:02:26;;;;;;;;;;;10.10;99.90;;;;;;5074989;28;19926;-78
2021/05/19 02:04:53;;;;;;;;;;;10.00;99.90;;;;;;5074956;28;20278;-78
2021/05/19 02:07:18;;;;;;;;;;;10.10;99.90;;;;;;5092850;28;19915;-78
2021/05/19 02:09:44;;;;;;;;;;;10.00;99.90;;;;;;5092820;28;19904;-78
2021/05/19 02:12:09;;;;;;;;;;;9.90;99.90;;;;;;5075162;28;19993;-79
2021/05/19 02:14:35;;;;;;;;;;;9.90;99.90;;;;;;5092868;28;20275;-78
2021/05/19 02:17:00;;;;;;;;;;;9.80;99.90;;;;;;5092833;28;19961;-79
2021/05/19 02:19:25;;;;;;;;;;;9.70;99.90;;;;;;5074835;28;19904;-78
2021/05/19 02:21:51;;;;;;;;;;;9.60;99.90;;;;;;5092936;28;19904;-79
2021/05/19 02:24:17;;;;;;;;;;;9.60;99.90;;;;;;5074803;28;19960;-78
2021/05/19 02:26:43;;;;;;;;;;;9.50;99.90;;;;;;5074805;28;19904;-78
2021/05/19 02:29:09;;;;;;;;;;;9.40;99.90;;;;;;5074487;28;19930;-78
2021/05/19 02:31:35;;;;;;;;;;;9.40;99.90;;;;;;5092872;28;19966;-78
2021/05/19 02:34:01;;;;;;;;;;;9.40;99.90;;;;;;5074648;28;19957;-78
2021/05/19 02:36:26;;;;;;;;;;;9.30;99.90;;;;;;5093484;28;20374;-78
2021/05/19 02:38:53;;;;;;;;;;;9.20;99.90;;;;;;5074261;28;20328;-79
2021/05/19 02:41:18;;;;;;;;;;;9.10;99.90;;;;;;5092691;28;19915;-78
2021/05/19 02:43:44;;;;;;;;;;;9.00;99.90;;;;;;5074336;28;19907;-78
2021/05/19 02:46:12;;;;;;;;;;;9.00;99.90;;;;;;5074510;28;19911;-78
2021/05/19 02:48:38;;;;;;;;;;;9.00;99.90;;;;;;5074194;28;19910;-79
2021/05/19 02:51:03;;;;;;;;;;;8.90;99.90;;;;;;5076650;28;20002;-78
2021/05/19 02:53:29;;;;;;;;;;;8.90;99.90;;;;;;5096519;28;19904;-78
2021/05/19 02:55:54;;;;;;;;;;;8.90;99.90;;;;;;5078566;28;19958;-78
2021/05/19 02:58:20;;;;;;;;;;;8.90;99.90;;;;;;5078078;28;20353;-78
2021/05/19 03:00:45;;;;;;;;;;;8.70;99.90;;;;;;5096627;28;19911;-78
2021/05/19 03:03:10;;;;;;;;;;;8.70;99.90;;;;;;5096266;28;20427;-78
2021/05/19 03:05:36;;;;;;;;;;;8.60;99.90;;;;;;5078131;28;20329;-78
2021/05/19 03:08:01;;;;;;;;;;;8.60;99.90;;;;;;5078159;28;19979;-78
2021/05/19 03:10:28;;;;;;;;;;;8.60;99.90;;;;;;5077888;28;19939;-78
2021/05/19 03:12:55;;;;;;;;;;;8.60;99.90;;;;;;5077691;28;19927;-78
2021/05/19 03:15:22;;;;;;;;;;;8.50;99.90;;;;;;5077749;28;20359;-78
2021/05/19 03:17:47;;;;;;;;;;;8.50;99.90;;;;;;5077998;28;19904;-78
2021/05/19 03:20:13;;;;;;;;;;;8.50;99.90;;;;;;5077541;28;19930;-78
2021/05/19 03:22:39;;;;;;;;;;;8.50;99.90;;;;;;5077659;28;19915;-79
2021/05/19 03:25:05;;;;;;;;;;;8.40;99.90;;;;;;5095713;28;19908;-78
2021/05/19 03:27:30;;;;;;;;;;;8.40;99.90;;;;;;5077476;28;19904;-78
2021/05/19 03:29:56;;;;;;;;;;;8.40;99.90;;;;;;5077386;28;19904;-78
2021/05/19 03:32:21;;;;;;;;;;;8.30;99.90;;;;;;5077557;28;19911;-78
2021/05/19 03:34:47;;;;;;;;;;;8.40;99.90;;;;;;5077548;28;19949;-79
2021/05/19 03:37:13;;;;;;;;;;;8.40;99.90;;;;;;5077555;28;19953;-78
2021/05/19 03:39:38;;;;;;;;;;;8.40;99.90;;;;;;5077235;28;20354;-78
2021/05/19 03:42:04;;;;;;;;;;;8.40;99.90;;;;;;5077449;28;19908;-78
2021/05/19 03:44:29;;;;;;;;;;;8.50;99.90;;;;;;5077112;28;20007;-78
2021/05/19 03:46:55;;;;;;;;;;;8.50;99.90;;;;;;5077435;28;19911;-78
2021/05/19 03:49:21;;;;;;;;;;;8.50;99.90;;;;;;5077271;28;19904;-78
2021/05/19 03:51:46;;;;;;;;;;;8.40;99.90;;;;;;5077489;28;20355;-78
2021/05/19 03:54:12;;;;;;;;;;;8.50;99.90;;;;;;5077177;28;20274;-80
2021/05/19 03:56:37;;;;;;;;;;;8.50;99.90;;;;;;5077083;28;19904;-78
2021/05/19 03:59:03;;;;;;;;;;;8.60;99.90;;;;;;5095071;28;19904;-78
2021/05/19 04:01:29;;;;;;;;;;;8.70;99.90;;;;;;5094674;28;19915;-78
2021/05/19 04:03:54;;;;;;;;;;;8.70;99.90;;;;;;5076168;28;19908;-78
2021/05/19 04:06:22;;;;;;;;;;;8.80;99.90;;;;;;5077085;28;19908;-78
2021/05/19 04:08:48;;;;;;;;;;;8.90;99.90;;;;;;5094846;28;19908;-79
2021/05/19 04:11:13;;;;;;;;;;;8.90;99.90;;;;;;5076635;28;19919;-78
2021/05/19 04:13:39;;;;;;;;;;;9.00;99.90;;;;;;5076825;28;19934;-78
2021/05/19 04:16:05;;;;;;;;;;;9.00;99.90;;;;;;5076926;28;19904;-78
2021/05/19 04:18:30;;;;;;;;;;;9.10;99.90;;;;;;5094537;28;20381;-78
2021/05/19 04:20:56;;;;;;;;;;;9.10;99.90;;;;;;5076553;28;19904;-79
2021/05/19 04:23:22;;;;;;;;;;;9.20;99.90;;;;;;5094775;28;19933;-78
2021/05/19 04:25:48;;;;;;;;;;;9.30;99.90;;;;;;5076613;28;19908;-78
2021/05/19 04:28:14;;;;;;;;;;;9.40;99.90;;;;;;5076835;28;19908;-78
2021/05/19 04:30:39;;;;;;;;;;;9.40;99.90;;;;;;5076382;28;19949;-78
2021/05/19 04:33:05;;;;;;;;;;;9.40;99.90;;;;;;5076714;28;19940;-79
2021/05/19 04:35:31;;;;;;;;;;;9.50;99.90;;;;;;5076384;28;20354;-78
2021/05/19 04:37:57;;;;;;;;;;;9.60;99.90;;;;;;5076103;28;20355;-78
2021/05/19 04:40:23;;;;;;;;;;;9.60;99.90;;;;;;5075993;28;19915;-78
2021/05/19 04:42:48;;;;;;;;;;;9.60;99.90;;;;;;5076212;28;19912;-78
2021/05/19 04:45:14;;;;;;;;;;;9.70;99.90;;;;;;5075632;28;19912;-78
2021/05/19 04:47:40;;;;;;;;;;;9.70;99.90;;;;;;5093138;28;19939;-78
2021/05/19 04:50:06;;;;;;;;;;;9.80;99.90;;;;;;5074080;28;19904;-78
2021/05/19 04:52:32;;;;;;;;;;;9.80;99.90;;;;;;5074997;28;20296;-79
2021/05/19 04:55:00;;;;;;;;;;;9.80;99.90;;;;;;5074683;28;19911;-78
2021/05/19 04:57:25;;;;;;;;;;;9.80;99.90;;;;;;5080315;28;20003;-78
2021/05/19 04:59:51;;;;;;;;;;;9.80;99.90;;;;;;5074673;28;19947;-78
2021/05/19 05:02:16;;;;;;;;;;;9.80;99.90;;;;;;5075180;28;20266;-78
2021/05/19 05:04:42;;;;;;;;;;;9.80;99.90;;;;;;5074801;28;20428;-77
2021/05/19 05:07:07;;;;;;;;;;;9.90;99.90;;;;;;5081725;28;19915;-78
2021/05/19 05:09:33;;;;;;;;;;;10.00;99.90;;;;;;5076822;28;19912;-78
2021/05/19 05:11:59;;;;;;;;;;;10.10;99.90;;;;;;5090012;28;20358;-78
2021/05/19 05:14:25;;;;;;;;;;;10.10;99.90;;;;;;5113033;28;20290;-78
2021/05/19 05:16:50;;;;;;;;;;;10.10;99.90;;;;;;5099244;28;19911;-78
2021/05/19 05:19:16;;;;;;;;;;;10.10;99.90;;;;;;5131499;27;19903;-79
2021/05/19 05:21:41;;;;;;;;;;;10.00;99.90;;;;;;5115051;27;19968;-79
2021/05/19 05:24:07;;;;;;;;;;;10.00;99.90;;;;;;5096329;27;20317;-78
2021/05/19 05:26:32;;;;;;;;;;;9.90;99.90;;;;;;5074138;28;19904;-78
2021/05/19 05:28:57;;;;;;;;;;;9.90;99.90;;;;;;5074009;28;19911;-77
2021/05/19 05:31:23;;;;;;;;;;;10.00;99.90;;;;;;5074162;28;19985;-77
2021/05/19 05:33:49;;;;;;;;;;;10.20;99.90;;;;;;5092312;28;20449;-78
2021/05/19 05:36:14;;;;;;;;;;;10.20;99.90;;;;;;5073718;28;19965;-78
2021/05/19 05:38:40;;;;;;;;;;;10.50;99.90;;;;;;5073718;28;19950;-77
2021/05/19 05:41:05;;;;;;;;;;;10.60;99.90;;;;;;5073775;28;20371;-78
2021/05/19 05:43:31;;;;;;;;;;;10.70;99.90;;;;;;5092095;28;19912;-78
2021/05/19 05:45:56;;;;;;;;;;;10.80;99.90;;;;;;5073672;28;19904;-78
2021/05/19 05:48:22;;;;;;;;;;;10.80;99.90;;;;;;5073823;28;19904;-78
2021/05/19 05:50:47;;;;;;;;;;;10.70;99.90;;;;;;5073703;28;20358;-78
2021/05/19 05:53:13;;;;;;;;;;;10.60;99.90;;;;;;5073786;28;19927;-78
2021/05/19 05:55:38;;;;;;;;;;;10.50;99.90;;;;;;5073705;28;20282;-78
2021/05/19 05:58:04;;;;;;;;;;;10.50;99.90;;;;;;5091922;28;19911;-78
2021/05/19 06:00:29;;;;;;;;;;;10.40;99.90;;;;;;5073525;28;20269;-78
2021/05/19 06:02:55;;;;;;;;;;;10.50;99.90;;;;;;5073576;28;19904;-78
2021/05/19 06:05:20;;;;;;;;;;;10.70;99.90;;;;;;5073950;28;20009;-77
2021/05/19 06:07:46;;;;;;;;;;;10.80;99.90;;;;;;5091749;28;19972;-79
2021/05/19 06:10:11;;;;;;;;;;;11.00;99.90;;;;;;5073328;28;20002;-78
2021/05/19 06:12:37;;;;;;;;;;;11.00;99.90;;;;;;5073808;28;19987;-79
2021/05/19 06:15:03;;;;;;;;;;;10.90;99.90;;;;;;5073891;28;19919;-78
2021/05/19 06:17:28;;;;;;;;;;;11.10;99.90;;;;;;5092985;28;19912;-78
2021/05/19 06:19:54;;;;;;;;;;;11.30;99.90;;;;;;5074834;28;19942;-78
2021/05/19 06:22:19;;;;;;;;;;;11.60;99.90;;;;;;5074046;28;19911;-78
2021/05/19 06:24:46;;;;;;;;;;;12.50;99.90;;;;;;5074207;28;19908;-78
2021/05/19 06:27:12;;;;;;;;;;;15.70;99.90;;;;;;5096801;28;19911;-78
2021/05/19 06:29:38;;;;;;;4.57;3.67;;;18.00;99.90;;;;;;5079100;28;19904;-80
2021/05/19 06:32:04;;;;;;;5.13;3.33;;;17.20;99.90;;;;;;5079360;28;19904;-80
2021/05/19 06:34:29;;;;;;;;;;;15.70;99.90;;;;;;5078372;28;20115;-78
2021/05/19 06:36:55;;;;;;;;;;;14.50;99.90;;;;;;5096092;28;20516;-78
2021/05/19 06:39:22;;;;;;;6.20;4.10;;;13.20;99.90;;;;;;5077679;28;20444;-78
2021/05/19 06:41:49;;;;;;;;;;;12.60;99.90;;;;;;5077968;28;20263;-78
2021/05/19 06:44:15;;;;;;;8.60;4.70;;;12.20;99.90;;;;;;5077590;28;20465;-78
2021/05/19 06:46:41;;;;;;;11.93;4.85;;;12.00;99.90;;;;;;5077557;28;20404;-78
2021/05/19 06:49:07;;;;;;;;;;;12.40;99.90;;;;;;5076871;28;20056;-78
2021/05/19 06:51:33;;;;;;;;;;;14.30;99.90;;;;;;5078368;28;19939;-78
2021/05/19 06:53:59;;;;;;;7.95;4.95;;;14.70;99.90;;;;;;5077562;28;19912;-78
2021/05/19 06:56:26;;;;;;;9.60;5.60;;;14.30;99.90;;;;;;5077832;28;20086;-78
2021/05/19 06:58:52;;;;;;;7.95;4.82;;;14.20;99.90;;;;;;5077235;28;20398;-78
2021/05/19 07:01:17;;;;;;;;;;;14.20;99.90;;;;;;5076439;28;19911;-78
2021/05/19 07:03:42;;;;;;;7.00;4.73;;;14.40;99.90;;;;;;5076804;28;19912;-79
2021/05/19 07:06:08;;;;;;;;;;;14.70;99.90;;;;;;5076723;28;19963;-79
2021/05/19 07:08:33;;;;;;;;;;;15.20;99.90;;;;;;5096783;28;20313;-78
2021/05/19 07:10:59;;;;;;;;;;;15.20;99.90;;;;;;5098324;28;20017;-79
2021/05/19 07:13:28;;;;;;;4.93;3.85;;;15.00;99.90;;;;;;5094832;28;20031;-78
2021/05/19 07:15:54;;;;;;;4.70;3.38;;;14.90;99.90;;;;;;5096215;28;20108;-77
2021/05/19 07:18:20;;;;;;;6.47;4.28;;;14.50;99.90;;;;;;5095225;28;20023;-79
2021/05/19 07:20:46;;;;;;;5.40;3.63;;;14.60;99.90;;;;;;5094211;28;20024;-79
2021/05/19 07:23:12;;;;;;;5.75;3.75;;;14.80;99.90;;;;;;5084398;28;20023;-79
2021/05/19 07:25:37;;;;;;;;;;;14.50;99.90;;;;;;5081114;28;20024;-77
2021/05/19 07:28:04;;;;;;;;;;;14.70;99.90;;;;;;5074681;28;20026;-79
2021/05/19 07:30:30;;;;;;;;;;;15.50;99.90;;;;;;5074954;28;19942;-81
2021/05/19 07:32:56;;;;;;;6.43;4.35;;;16.70;99.90;;;;;;5076209;28;19904;-79
2021/05/19 07:35:21;;;;;;;6.15;3.88;;;18.30;99.90;;;;;;5074974;28;20044;-79
2021/05/19 07:37:47;;;;;;;4.80;3.80;;;20.40;99.90;;;;;;5078362;28;20015;-78
2021/05/19 07:40:13;;;;;;;6.97;3.55;;;22.90;99.90;;;;;;5095385;28;20386;-79
2021/05/19 07:42:39;;;;;;;5.23;3.70;;;21.60;99.90;;;;;;5095291;28;20023;-80
2021/05/19 07:45:06;;;;;;;5.20;3.38;;;20.30;99.90;;;;;;5113354;28;20285;-78
2021/05/19 07:47:31;;;;;;;6.65;3.30;;;18.70;99.90;;;;;;5095536;28;20015;-79
2021/05/19 07:49:57;;;;;;;7.00;3.60;;;17.30;99.90;;;;;;5095562;28;20402;-79
2021/05/19 07:52:22;;;;;;;7.18;3.75;;;16.60;99.90;;;;;;5095564;28;20091;-78
2021/05/19 07:54:48;;;;;;;;;;;16.00;99.90;;;;;;5094910;28;20333;-78
2021/05/19 07:57:27;;;;;;;5.50;3.40;;;16.50;99.90;;;;;;5094835;28;19956;-79
2021/05/19 08:02:40;;;;;;;;;;;19.50;99.90;;;;;;5100573;28;20036;-80
2021/05/19 08:05:06;;;;;;;5.07;3.17;;;21.40;99.90;;;;;;5074165;28;20419;-81
2021/05/19 08:07:32;;;;;;;4.95;2.60;;;24.50;99.90;;;;;;5074659;28;20567;-79
2021/05/19 08:09:57;;;;;;;3.92;2.72;;;26.00;93.00;;;;;;5073746;28;20029;-80
2021/05/19 08:12:23;;;;;;;4.60;2.92;;;27.40;88.40;;;;;;5074973;28;20356;-80
2021/05/19 08:14:49;;;;;;;3.77;2.80;;;27.30;79.10;;;;;;5073823;28;20028;-80
2021/05/19 08:17:17;;;;;;;5.53;3.00;;;27.50;78.70;;;;;;5075032;28;20035;-79
2021/05/19 08:19:42;;;;;;;;;;;27.70;77.50;;;;;;5074420;28;20023;-80
2021/05/19 08:22:12;;;;;;;;;;;27.30;73.80;;;;;;5091537;28;20139;-80
2021/05/19 08:24:37;;;;;;;;;;;27.60;77.80;;;;;;5095739;28;20006;-80
2021/05/19 08:27:03;;;;;;;;;;;28.60;71.40;;;;;;5114290;28;19947;-79
2021/05/19 08:29:28;;;;;;;;;;;28.20;71.30;;;;;;5095566;28;20352;-80
2021/05/19 08:31:53;;;;;;;;;;;28.70;71.50;;;;;;5096592;28;19911;-79
2021/05/19 08:34:19;;;;;;;2.80;2.20;;;28.90;66.90;;;;;;5096053;28;20395;-79
2021/05/19 08:36:44;;;;;;;2.30;2.10;;;29.10;67.30;;;;;;5113616;28;20528;-80
2021/05/19 08:39:10;;;;;;;4.63;3.13;;;28.30;65.50;;;;;;5095463;28;20038;-81
2021/05/19 08:41:36;;;;;;;;;;;28.60;67.70;;;;;;5096236;28;20027;-79
2021/05/19 08:44:04;;;;;;;;;;;29.10;66.70;;;;;;5096028;28;19931;-79
2021/05/19 08:46:30;;;;;;;;;;;29.00;65.30;;;;;;5114300;28;19918;-79
2021/05/19 08:49:04;;;;;;;;;;;28.50;66.20;;;;;;5094734;28;19904;-79
2021/05/19 08:51:29;;;;;;;;;;;27.70;65.40;;;;;;5114191;28;20003;-79
2021/05/19 08:53:55;;;;;;;2.87;2.47;;;28.30;65.20;;;;;;5114013;28;20354;-80
2021/05/19 08:56:20;;;;;;;;;;;27.50;69.70;;;;;;5113962;28;20025;-79
2021/05/19 08:58:46;;;;;;;;;;;28.20;66.90;;;;;;5113478;28;19928;-79
2021/05/19 09:01:20;;;;;;;;;;;28.50;64.40;;;;;;5095363;28;20278;-79
2021/05/19 09:04:00;;;;;;;;;;;28.90;63.10;;;;;;5092472;28;19907;-78
2021/05/19 09:06:26;;;;;;;;;;;29.20;64.70;;;;;;5075593;28;19959;-80
2021/05/19 09:08:51;;;;;;;;;;;29.00;60.40;;;;;;5093102;28;19930;-80
2021/05/19 09:11:17;;;;;;;;;;;27.40;64.00;;;;;;5094432;28;19911;-79
2021/05/19 09:13:46;;;;;;;;;;;26.80;67.40;;;;;;5075633;28;20206;-80
2021/05/19 09:16:14;;;;;;;;;;;26.80;68.40;;;;;;5093944;28;20170;-79
2021/05/19 09:18:50;;;;;;;;;;;24.90;67.90;;;;;;5093838;28;19919;-79
2021/05/19 09:21:31;;;;;;;;;;;26.00;69.00;;;;;;5075799;28;19954;-81
2021/05/19 09:23:57;;;;;;;;;;;26.50;66.60;;;;;;5076272;28;19908;-79
2021/05/19 09:26:22;;;;;;;;;;;26.90;64.30;;;;;;5076232;28;19930;-79
2021/05/19 09:28:47;;;;;;;;;;;26.10;68.50;;;;;;5093761;28;20389;-79
2021/05/19 09:31:20;;;;;;;;;;;23.70;68.90;;;;;;5076532;28;19904;-79
2021/05/19 09:33:47;;;;;;;;;;;21.70;76.30;;;;;;5092889;28;20289;-79
2021/05/19 09:36:20;;;;;;;;;;;20.60;83.60;;;;;;5095723;28;19915;-79
2021/05/19 09:38:49;;;;;;;;;;;19.90;85.90;;;;;;5113977;28;19924;-80
2021/05/19 09:41:15;;;;;;;;;;;21.50;95.40;;;;;;5091305;28;19911;-79
2021/05/19 09:43:41;;;;;;;;;;;22.60;87.80;;;;;;5079398;28;19920;-79
2021/05/19 09:46:13;;;;;;;;;;;23.00;86.80;;;;;;5075517;28;19904;-80
2021/05/19 09:48:39;;;;;;;;;;;23.60;79.40;;;;;;5075212;28;19915;-79
2021/05/19 09:51:04;;;;;;;;;;;23.50;79.10;;;;;;5075211;28;19904;-81
2021/05/19 09:53:33;;;;;;;;;;;22.50;80.30;;;;;;5075706;28;20375;-80
2021/05/19 09:55:59;;;;;;;;;;;22.60;80.70;;;;;;5075520;28;19915;-79
2021/05/19 09:58:28;;;;;;;;;;;22.50;81.90;;;;;;5075195;28;20313;-79
2021/05/19 10:00:54;;;;;;;;;;;22.20;88.80;;;;;;5074998;28;19953;-81
2021/05/19 10:03:19;;;;;;;;;;;22.80;80.20;;;;;;5093142;28;19904;-79
2021/05/19 10:05:50;;;;;;;;;;;23.40;72.70;;;;;;5075443;28;20477;-80
2021/05/19 10:08:16;;;;;;;;;;;23.80;72.70;;;;;;5075701;28;20378;-79
2021/05/19 10:10:41;;;;;;;;;;;22.90;72.50;;;;;;5075090;28;19904;-80
2021/05/19 10:13:08;;;;;;;;;;;22.20;76.20;;;;;;5075164;28;19903;-79
2021/05/19 10:15:34;;;;;;;;;;;22.00;72.70;;;;;;5075480;28;19911;-80
2021/05/19 10:18:10;;;;;;;;;;;20.90;73.90;;;;;;5075270;28;19904;-78
2021/05/19 10:20:36;;;;;;;;;;;21.20;76.70;;;;;;5074887;28;19908;-79
2021/05/19 10:23:05;;;;;;;;;;;20.90;76.50;;;;;;5075165;28;19911;-79
2021/05/19 10:25:38;;;;;;;;;;;22.70;79.40;;;;;;5075256;28;20312;-80
2021/05/19 10:28:05;;;;;;;;;;;23.30;73.90;;;;;;5075131;28;19904;-81
2021/05/19 10:30:43;;;;;;;;;;;22.20;72.70;;;;;;5075074;28;19911;-79
2021/05/19 10:33:27;;;;;;;;;;;21.50;77.20;;;;;;5083832;28;19912;-78
2021/05/19 10:35:53;;;;;;;;;;;21.60;75.80;;;;;;5090157;28;19935;-79
2021/05/19 10:38:20;;;;;;;;;;;21.90;76.80;;;;;;5092820;28;19912;-80
2021/05/19 10:40:50;;;;;;;;;;;22.50;72.80;;;;;;5094631;28;20320;-79
2021/05/19 10:43:16;;;;;;;;;;;21.90;68.60;;;;;;5095083;28;19911;-80
2021/05/19 10:45:53;;;;;;;;;;;20.50;73.20;;;;;;5094799;28;20366;-79
2021/05/19 10:48:29;;;;;;;;;;;20.00;75.90;;;;;;5093656;28;19908;-80
2021/05/19 10:51:00;;;;;;;;;;;20.10;73.10;;;;;;5074711;28;19910;-79
2021/05/19 10:59:10;;;;;;;;;;;21.70;70.70;;;;;;5102684;28;20030;-79
2021/05/19 11:01:39;;;;;;;;;;;21.90;74.60;;;;;;5101286;28;20035;-79
2021/05/19 11:04:11;;;;;;;;;;;23.20;73.10;;;;;;5083999;28;20286;-79
2021/05/19 11:07:00;;;;;;;;;;;25.50;69.40;;;;;;5082740;28;20543;-81
2021/05/19 11:09:27;;;;;;;;;;;26.70;68.20;;;;;;5075074;28;19904;-78
2021/05/19 11:12:13;;;;;;;;;;;25.20;64.00;;;;;;5087473;28;20373;-80
2021/05/19 11:15:02;;;;;;;;;;;23.50;67.40;;;;;;5088859;28;20603;-80
2021/05/19 11:17:48;;;;;;;2.20;1.65;;;22.80;66.30;;;;;;5105099;28;20025;-77
2021/05/19 11:20:13;;;;;;;;;;;21.80;67.10;;;;;;5107211;28;20068;-80
2021/05/19 11:22:39;;;;;;;;;;;22.70;66.80;;;;;;5089238;28;19990;-78
2021/05/19 11:25:05;;;;;;;;;;;22.30;65.70;;;;;;5088304;28;19908;-79
2021/05/19 11:27:31;;;;;;;;;;;21.30;67.20;;;;;;5087587;28;19904;-79
2021/05/19 11:29:58;;;;;;;;;;;20.50;73.10;;;;;;5086714;28;19908;-79
2021/05/19 11:32:28;;;;;;;;;;;20.10;74.30;;;;;;5087749;28;20346;-78
2021/05/19 11:35:09;;;;;;;;;;;19.90;74.50;;;;;;5086293;28;19943;-79
2021/05/19 11:37:35;;;;;;;;;;;19.90;73.40;;;;;;5078444;28;19977;-80
2021/05/19 11:40:00;;;;;;;;;;;19.50;73.90;;;;;;5078083;28;20300;-79
2021/05/19 11:42:28;;;;;;;;;;;19.50;80.70;;;;;;5096221;28;19904;-80
2021/05/19 11:45:07;;;;;;;;;;;19.40;72.10;;;;;;5084377;28;19935;-78
2021/05/19 11:47:33;;;;;;;;;;;19.20;77.70;;;;;;5116206;28;20394;-79
2021/05/19 11:50:12;;;;;;;;;;;20.00;74.70;;;;;;5097778;28;19904;-80
2021/05/19 11:52:38;;;;;;;;;;;20.80;77.30;;;;;;5087284;28;19915;-80
2021/05/19 11:55:04;;;;;;;;;;;22.00;69.60;;;;;;5106064;28;19904;-77
2021/05/19 11:57:30;;;;;;;;;;;22.30;70.00;;;;;;5086355;28;19910;-80
2021/05/19 11:59:55;;;;;;;;;;;22.70;74.30;;;;;;5087428;28;20431;-79
2021/05/19 12:02:21;;;;;;;;;;;22.20;65.90;;;;;;5087532;28;19934;-80
2021/05/19 12:04:46;;;;;;;;;;;22.40;69.90;;;;;;5085925;28;19916;-80
2021/05/19 12:07:14;;;;;;;;;;;22.60;73.00;;;;;;5085970;28;19904;-80
2021/05/19 12:09:41;;;;;;;;;;;22.60;72.50;;;;;;5087680;28;19908;-79
2021/05/19 12:12:11;;;;;;;;;;;21.80;64.80;;;;;;5106003;28;19917;-79
2021/05/19 12:14:37;;;;;;;;;;;22.40;71.90;;;;;;5091832;28;19951;-79
2021/05/19 12:17:03;;;;;;;;;;;22.60;65.20;;;;;;5077121;28;19991;-79
2021/05/19 12:19:33;;;;;;;;;;;21.70;68.50;;;;;;5095020;28;19946;-80
2021/05/19 12:22:11;;;;;;;;;;;21.70;70.20;;;;;;5095091;28;19915;-80
2021/05/19 12:24:36;;;;;;;;;;;22.20;71.10;;;;;;5092944;28;20378;-79
2021/05/19 12:27:04;;;;;;;;;;;22.00;67.30;;;;;;5093491;28;20006;-81
2021/05/19 12:29:35;;;;;;;;;;;21.40;72.60;;;;;;5076417;28;19947;-78
2021/05/19 12:32:14;;;;;;;;;;;20.90;71.30;;;;;;5077198;28;20251;-80
2021/05/19 12:34:40;;;;;;;;;;;20.60;77.50;;;;;;5096526;28;20412;-77
2021/05/19 12:37:06;;;;;;;;;;;20.00;72.90;;;;;;5096828;28;19908;-79
2021/05/19 12:39:32;;;;;;;;;;;20.10;72.10;;;;;;5096549;28;19903;-78
2021/05/19 12:41:58;;;;;;;;;;;19.70;79.70;;;;;;5097128;28;19904;-79
2021/05/19 12:44:31;;;;;;;;;;;19.50;83.60;;;;;;5114788;28;19995;-79
2021/05/19 12:47:00;;;;;;;;;;;19.60;86.70;;;;;;5096889;28;19904;-80
2021/05/19 12:49:26;;;;;;;;;;;19.90;94.10;;;;;;5096881;28;20378;-80
2021/05/19 12:51:53;;;;;;;;;;;20.00;92.10;;;;;;5096347;28;19992;-80
2021/05/19 12:54:28;;;;;;;;;;;19.70;91.00;;;;;;5096766;28;19956;-79
2021/05/19 12:57:07;;;;;;;;;;;19.90;89.10;;;;;;5114966;28;20388;-80
2021/05/19 12:59:52;;;;;;;;;;;20.20;83.90;;;;;;5096708;28;19911;-77
2021/05/19 13:02:17;;;;;;;;;;;20.00;81.80;;;;;;5115020;28;19910;-78
2021/05/19 13:04:49;;;;;;;;;;;19.90;81.60;;;;;;5096900;28;20072;-80
2021/05/19 13:07:19;;;;;;;;;;;19.70;82.40;;;;;;5115395;28;20032;-78
2021/05/19 13:09:48;;;;;;;;;;;19.10;84.20;;;;;;5096252;28;19964;-80
2021/05/19 13:12:21;;;;;;;;;;;18.20;84.00;;;;;;5096386;28;20285;-77
2021/05/19 13:14:50;;;;;;;;;;;17.20;82.20;;;;;;5113747;28;19903;-79
2021/05/19 13:17:38;;;;;;;;;;;16.40;86.20;;;;;;5095961;28;19992;-77
2021/05/19 13:20:08;;;;;;;;;;;16.20;90.80;;;;;;5095053;28;19904;-77
2021/05/19 13:22:35;;;;;;;;;;;15.90;92.60;;;;;;5095414;28;19982;-79
2021/05/19 13:25:01;;;;;;;;;;;15.90;96.10;;;;;;5094727;28;19919;-79
2021/05/19 13:27:31;;;;;;;;;;;15.80;99.90;;;;;;5079412;28;19903;-79
2021/05/19 13:30:00;;;;;;;;;;;15.70;99.90;;;;;;5095023;28;19903;-79
2021/05/19 13:37:48;;;;;;;;;;;15.70;99.90;;;;;;5113568;28;19936;-77
2021/05/19 13:40:13;;;;;;;;;;;16.00;99.90;;;;;;5113351;28;19911;-79
2021/05/19 13:42:38;;;;;;;;;;;16.20;99.90;;;;;;5094938;28;19907;-79
2021/05/19 13:45:04;;;;;;;;;;;16.40;99.90;;;;;;5092358;28;19932;-79
2021/05/19 13:47:30;;;;;;;;;;;16.70;99.90;;;;;;5074607;28;19904;-77
2021/05/19 13:49:56;;;;;;;;;;;17.30;99.90;;;;;;5074298;28;19904;-77
2021/05/19 13:52:21;;;;;;;;;;;17.60;99.90;;;;;;5074355;28;20007;-78
2021/05/19 13:54:49;;;;;;;;;;;17.90;99.90;;;;;;5076022;28;19904;-77
2021/05/19 13:57:14;;;;;;;;;;;18.50;99.90;;;;;;5075652;28;19953;-78
2021/05/19 13:59:40;;;;;;;;;;;18.30;99.90;;;;;;5076061;28;20313;-77
2021/05/19 14:02:05;;;;;;;;;;;18.20;99.90;;;;;;5093859;28;19904;-81
2021/05/19 14:04:31;;;;;;;;;;;18.00;99.90;;;;;;5075492;28;20338;-79
2021/05/19 14:06:57;;;;;;;;;;;18.00;99.90;;;;;;5075859;28;19985;-80
2021/05/19 14:09:23;;;;;;;;;;;18.00;99.90;;;;;;5075765;28;19904;-79
2021/05/19 14:12:05;;;;;;;;;;;18.00;99.90;;;;;;5075752;28;19904;-78
2021/05/19 14:19:42;;;;;;;;;;;18.20;99.90;;;;;;5106710;28;19933;-80
2021/05/19 14:27:43;;;;;;;;;;;17.90;99.90;;;;;;5114004;28;19911;-79
2021/05/19 14:30:09;;;;;;;;;;;18.20;99.90;;;;;;5095629;28;19945;-80
2021/05/19 14:32:34;;;;;;;;;;;18.40;99.90;;;;;;5103235;28;19953;-79
2021/05/19 14:35:04;;;;;;;;;;;18.80;99.90;;;;;;5092741;28;19912;-79